Time;durP1;ratioP1;P1;durP2;ratioP2;P2;SDS_P1;SDS_P2;PMS_P1;PMS_P2;Temp;Humidity;BMP_temperature;BMP_pressure;BME280_temperature;BME280_humidity;BME280_pressure;Samples;Min_cycle;Max_cycle;Signal;HPM_P1;HPM_P2
2022/03/29 00:01:58;;;;;;;18.75;9.13;;;;;;;10.43;49.89;99741.66;4492348;31;33651;-80
2022/03/29 00:04:26;;;;;;;19.65;9.25;;;;;;;10.40;49.96;99742.69;4476709;31;33026;-80
2022/03/29 00:06:55;;;;;;;22.98;9.82;;;;;;;10.34;50.20;99737.66;4465965;31;33073;-81
2022/03/29 00:09:22;;;;;;;19.25;10.23;;;;;;;10.44;49.79;99733.72;4478192;31;33986;-81
2022/03/29 00:11:50;;;;;;;23.77;9.82;;;;;;;10.40;50.02;99736.56;4480094;31;33225;-81
2022/03/29 00:14:35;;;;;;;22.08;9.32;;;;;;;10.37;49.94;99736.66;4479749;31;33930;-80
2022/03/29 00:20:59;;;;;;;16.73;8.15;;;;;;;10.26;50.00;99723.94;4489852;31;35781;-81
2022/03/29 00:23:27;;;;;;;21.27;9.00;;;;;;;10.07;50.66;99723.00;4490848;31;33687;-80
2022/03/29 00:25:54;;;;;;;14.57;8.45;;;;;;;10.19;50.24;99717.19;4490342;31;35165;-81
2022/03/29 00:28:22;;;;;;;16.73;8.20;;;;;;;10.27;49.92;99704.53;4479971;31;33423;-81
2022/03/29 00:30:49;;;;;;;16.67;7.70;;;;;;;10.13;50.69;99706.91;4477673;31;34237;-80
2022/03/29 00:33:17;;;;;;;16.58;8.30;;;;;;;10.20;50.22;99698.63;4494017;31;34063;-81
2022/03/29 00:35:45;;;;;;;17.25;8.30;;;;;;;10.24;50.05;99699.41;4491410;31;34111;-82
2022/03/29 00:38:14;;;;;;;14.13;7.50;;;;;;;10.04;50.48;99692.31;4477476;31;33815;-81
2022/03/29 00:40:41;;;;;;;13.20;8.95;;;;;;;10.28;49.80;99694.84;4474411;31;32779;-80
2022/03/29 00:43:10;;;;;;;18.33;9.10;;;;;;;10.03;50.58;99698.53;4478224;31;33208;-80
2022/03/29 00:45:38;;;;;;;12.68;7.43;;;;;;;10.15;50.45;99690.06;4491258;31;33767;-80
2022/03/29 00:48:08;;;;;;;15.70;7.75;;;;;;;10.12;50.33;99686.72;4475639;31;33628;-81
2022/03/29 00:50:37;;;;;;;19.85;9.27;;;;;;;10.19;50.10;99690.78;4476597;31;32674;-81
2022/03/29 00:53:06;;;;;;;13.15;6.95;;;;;;;10.05;50.57;99685.25;4478516;31;33203;-81
2022/03/29 00:55:34;;;;;;;15.20;7.82;;;;;;;10.12;50.09;99678.81;4478867;31;34347;-80
2022/03/29 00:58:03;;;;;;;14.65;8.18;;;;;;;10.18;49.84;99675.88;4490207;31;33452;-80
2022/03/29 01:00:31;;;;;;;14.70;8.05;;;;;;;10.03;50.21;99669.50;4480103;31;33314;-80
2022/03/29 01:03:03;;;;;;;18.42;9.07;;;;;;;9.97;50.58;99675.91;4488573;31;34498;-81
2022/03/29 01:05:31;;;;;;;19.52;9.50;;;;;;;10.07;50.09;99665.81;4479151;31;33724;-81
2022/03/29 01:08:00;;;;;;;17.70;10.25;;;;;;;9.92;50.41;99664.72;4465320;31;34000;-80
2022/03/29 01:10:27;;;;;;;15.85;8.88;;;;;;;9.94;50.33;99660.22;4478563;31;32336;-80
2022/03/29 01:12:56;;;;;;;15.93;8.35;;;;;;;10.06;50.01;99650.87;4490542;31;33999;-80
2022/03/29 01:15:26;;;;;;;16.20;9.02;;;;;;;9.75;50.69;99661.91;4478937;31;33280;-80
2022/03/29 01:17:54;;;;;;;18.50;9.30;;;;;;;9.88;50.43;99662.25;4490767;31;34444;-80
2022/03/29 01:20:25;;;;;;;13.52;7.97;;;;;;;9.91;50.27;99657.69;4477852;31;34345;-80
2022/03/29 01:22:52;;;;;;;15.90;8.27;;;;;;;9.96;50.29;99663.63;4493457;31;33565;-80
2022/03/29 01:25:23;;;;;;;17.27;9.18;;;;;;;9.80;50.91;99656.44;4477603;31;32009;-81
2022/03/29 01:27:52;;;;;;;22.10;9.75;;;;;;;9.77;50.79;99659.22;4489613;31;34599;-80
2022/03/29 01:30:21;;;;;;;15.43;10.18;;;;;;;9.73;50.62;99650.56;4488669;31;33948;-79
2022/03/29 01:32:51;;;;;;;14.85;8.95;;;;;;;9.70;50.66;99654.22;4480907;31;33467;-81
2022/03/29 01:35:20;;;;;;;17.23;9.75;;;;;;;9.79;50.43;99650.31;4477622;31;32178;-80
2022/03/29 01:37:49;;;;;;;21.52;9.35;;;;;;;9.95;50.25;99646.09;4478593;31;33520;-80
2022/03/29 01:40:19;;;;;;;16.52;8.85;;;;;;;9.80;50.43;99648.53;4490665;31;33665;-80
2022/03/29 01:42:52;;;;;;;19.58;8.90;;;;;;;9.81;50.56;99635.28;4489728;31;33134;-80
2022/03/29 01:45:23;;;;;;;14.35;9.30;;;;;;;9.01;53.02;99634.25;4476907;31;34112;-82
2022/03/29 01:47:51;;;;;;;16.60;9.00;;;;;;;9.39;51.95;99636.16;4491738;31;34245;-82
2022/03/29 01:50:19;;;;;;;16.92;8.75;;;;;;;9.07;52.70;99623.44;4486766;31;33763;-81
2022/03/29 01:52:47;;;;;;;16.30;8.93;;;;;;;9.08;52.95;99617.28;4462326;31;33632;-80
2022/03/29 01:55:17;;;;;;;18.95;9.18;;;;;;;9.52;51.76;99607.53;4478303;31;32945;-81
2022/03/29 01:57:46;;;;;;;18.90;8.80;;;;;;;9.40;51.93;99608.91;4483196;31;32979;-81
2022/03/29 02:00:34;;;;;;;15.02;7.97;;;;;;;9.24;52.30;99613.09;4477124;31;34671;-81
2022/03/29 02:03:05;;;;;;;17.58;8.52;;;;;;;9.05;52.88;99607.72;4482133;31;33339;-81
2022/03/29 02:05:33;;;;;;;15.00;8.45;;;;;;;9.19;52.67;99612.44;4487673;31;34247;-81
2022/03/29 02:08:01;;;;;;;14.05;8.50;;;;;;;9.28;52.45;99609.41;4492914;31;32541;-81
2022/03/29 02:10:29;;;;;;;10.80;7.70;;;;;;;9.27;52.33;99599.81;4465729;31;33262;-82
2022/03/29 02:12:58;;;;;;;14.82;8.93;;;;;;;9.05;52.92;99588.44;4477313;31;33217;-82
2022/03/29 02:15:26;;;;;;;15.73;8.23;;;;;;;9.17;52.51;99591.44;4469410;31;32439;-82
2022/03/29 02:17:54;;;;;;;16.48;8.88;;;;;;;9.14;52.67;99594.19;4491027;31;33183;-82
2022/03/29 02:20:23;;;;;;;12.00;7.90;;;;;;;9.14;52.71;99594.19;4490349;31;32849;-82
2022/03/29 02:22:51;;;;;;;14.43;8.55;;;;;;;9.27;52.35;99586.62;4480560;31;34387;-82
2022/03/29 02:25:18;;;;;;;14.40;8.00;;;;;;;9.26;52.52;99587.56;4476229;31;34041;-82
2022/03/29 02:27:46;;;;;;;16.62;8.20;;;;;;;9.33;52.06;99581.09;4491091;31;33056;-82
2022/03/29 02:30:15;;;;;;;17.23;8.63;;;;;;;9.37;52.01;99585.31;4489762;31;33707;-82
2022/03/29 02:32:44;;;;;;;15.68;8.13;;;;;;;9.19;52.79;99586.09;4477982;31;32165;-82
2022/03/29 02:35:12;;;;;;;12.15;7.47;;;;;;;9.07;52.94;99582.19;4476586;31;33418;-82
2022/03/29 02:37:40;;;;;;;9.65;6.32;;;;;;;9.26;52.25;99579.66;4477016;31;34146;-82
2022/03/29 02:40:09;;;;;;;13.43;8.50;;;;;;;9.15;52.39;99576.59;4490732;31;33590;-82
2022/03/29 02:42:44;;;;;;;11.75;7.78;;;;;;;8.95;52.76;99574.78;4475632;31;33160;-82
2022/03/29 02:45:17;;;;;;;17.80;8.60;;;;;;;9.06;52.69;99576.97;4491559;31;31747;-82
2022/03/29 02:47:46;;;;;;;15.98;7.80;;;;;;;9.19;52.12;99579.03;4489756;31;33571;-82
2022/03/29 02:50:14;;;;;;;15.43;7.72;;;;;;;9.13;52.13;99574.03;4477944;31;32693;-82
2022/03/29 02:52:46;;;;;;;13.85;6.82;;;;;;;9.10;52.20;99574.16;4462297;31;32720;-82
2022/03/29 02:55:15;;;;;;;12.05;7.70;;;;;;;8.91;52.60;99563.50;4490469;31;33346;-82
2022/03/29 02:57:43;;;;;;;13.82;8.13;;;;;;;9.02;52.92;99567.47;4475300;31;33722;-82
2022/03/29 03:00:15;;;;;;;15.02;8.35;;;;;;;8.91;53.24;99570.56;4477530;31;33356;-82
2022/03/29 03:02:44;;;;;;;15.85;7.70;;;;;;;8.67;53.91;99567.13;4490212;31;33760;-81
2022/03/29 03:05:12;;;;;;;12.80;7.82;;;;;;;8.75;53.81;99557.16;4491299;31;33357;-82
2022/03/29 03:07:41;;;;;;;16.30;7.55;;;;;;;8.69;53.58;99560.91;4464897;31;33629;-82
2022/03/29 03:10:11;;;;;;;12.05;7.35;;;;;;;8.89;53.32;99557.47;4492961;31;34181;-82
2022/03/29 03:12:40;;;;;;;12.93;7.90;;;;;;;8.90;53.17;99555.69;4478450;31;33271;-82
2022/03/29 03:15:08;;;;;;;16.75;8.50;;;;;;;8.93;52.92;99556.41;4477204;31;33225;-83
2022/03/29 03:17:36;;;;;;;16.77;8.05;;;;;;;8.73;53.40;99553.72;4479899;31;32587;-81
2022/03/29 03:20:05;;;;;;;14.93;7.62;;;;;;;8.89;52.99;99559.25;4491986;31;34649;-81
2022/03/29 03:22:35;;;;;;;12.05;7.30;;;;;;;8.95;52.79;99564.25;4490942;31;34186;-80
2022/03/29 03:25:05;;;;;;;17.17;8.50;;;;;;;9.03;52.43;99561.31;4493966;31;33871;-81
2022/03/29 03:27:35;;;;;;;14.65;7.12;;;;;;;8.93;52.61;99563.47;4466671;31;33150;-81
2022/03/29 03:30:05;;;;;;;16.05;8.35;;;;;;;9.02;52.53;99551.69;4490600;31;34103;-81
2022/03/29 03:32:34;;;;;;;14.27;7.32;;;;;;;8.94;52.66;99555.50;4493166;31;33834;-81
2022/03/29 03:35:01;;;;;;;11.27;7.53;;;;;;;9.04;52.38;99545.44;4477401;31;33778;-81
2022/03/29 03:37:30;;;;;;;13.30;8.30;;;;;;;8.91;52.60;99545.06;4492554;31;34119;-81
2022/03/29 03:39:57;;;;;;;11.82;7.00;;;;;;;8.95;52.50;99536.13;4491466;31;33410;-82
2022/03/29 03:42:25;;;;;;;15.98;8.05;;;;;;;8.81;53.04;99542.88;4491877;31;34292;-82
2022/03/29 03:44:53;;;;;;;11.50;7.32;;;;;;;8.84;52.89;99540.16;4479546;31;33225;-82
2022/03/29 03:47:20;;;;;;;12.15;7.65;;;;;;;8.71;53.22;99542.41;4480704;31;32685;-81
2022/03/29 03:49:48;;;;;;;14.40;7.00;;;;;;;8.79;52.96;99540.31;4490184;31;33614;-82
2022/03/29 03:52:16;;;;;;;14.60;7.37;;;;;;;8.94;52.67;99534.44;4491884;31;33662;-82
2022/03/29 03:54:44;;;;;;;18.52;9.32;;;;;;;8.90;52.76;99540.72;4477526;31;33044;-82
2022/03/29 03:57:11;;;;;;;15.45;7.60;;;;;;;8.89;52.91;99541.66;4465117;31;34201;-81
2022/03/29 03:59:39;;;;;;;18.48;8.48;;;;;;;8.81;53.13;99541.09;4480111;31;33806;-82
2022/03/29 04:02:07;;;;;;;16.48;7.20;;;;;;;8.78;53.00;99535.97;4492401;31;34266;-82
2022/03/29 04:04:35;;;;;;;26.92;8.60;;;;;;;8.80;53.21;99531.50;4481930;31;32212;-82
2022/03/29 04:07:02;;;;;;;18.40;8.70;;;;;;;8.80;53.26;99536.78;4490275;31;32649;-81
2022/03/29 04:09:30;;;;;;;17.87;8.52;;;;;;;8.78;53.17;99537.75;4477835;31;33468;-82
2022/03/29 04:11:58;;;;;;;14.25;8.48;;;;;;;8.80;53.14;99526.25;4480523;31;33762;-82
2022/03/29 04:14:26;;;;;;;13.40;7.82;;;;;;;8.84;53.07;99521.72;4489177;31;34083;-82
2022/03/29 04:16:53;;;;;;;19.27;8.38;;;;;;;8.74;53.32;99521.22;4478408;31;32875;-81
2022/03/29 04:19:21;;;;;;;15.80;7.85;;;;;;;8.59;54.29;99527.09;4491555;31;34338;-81
2022/03/29 04:21:49;;;;;;;12.90;7.68;;;;;;;8.57;54.52;99523.69;4489037;31;34404;-81
2022/03/29 04:24:17;;;;;;;16.37;7.70;;;;;;;8.63;54.33;99520.78;4480422;31;32610;-80
2022/03/29 04:26:47;;;;;;;15.70;7.78;;;;;;;8.57;54.42;99524.53;4490569;31;34291;-81
2022/03/29 04:29:14;;;;;;;14.63;8.23;;;;;;;8.84;53.67;99527.84;4477990;31;33595;-81
2022/03/29 04:31:42;;;;;;;12.65;7.37;;;;;;;8.87;53.63;99522.41;4490946;31;33639;-81
2022/03/29 04:34:11;;;;;;;16.60;7.60;;;;;;;8.71;54.37;99523.97;4475590;31;34316;-81
2022/03/29 04:36:39;;;;;;;12.37;6.95;;;;;;;8.92;53.89;99525.72;4489788;31;35112;-81
2022/03/29 04:39:06;;;;;;;12.73;7.05;;;;;;;8.98;53.79;99525.50;4477748;31;33885;-81
2022/03/29 04:41:34;;;;;;;18.70;7.60;;;;;;;8.97;53.95;99513.25;4477138;31;34611;-80
2022/03/29 04:44:22;;;;;;;14.70;7.43;;;;;;;8.66;54.84;99510.16;4480389;31;32104;-80
2022/03/29 04:46:49;;;;;;;18.05;7.95;;;;;;;8.97;53.89;99505.34;4477213;31;33546;-81
2022/03/29 04:49:17;;;;;;;15.30;7.90;;;;;;;8.87;54.16;99504.00;4476899;31;33926;-81
2022/03/29 04:51:45;;;;;;;22.80;9.05;;;;;;;8.88;54.32;99497.81;4476826;31;33189;-81
2022/03/29 04:54:13;;;;;;;17.17;7.78;;;;;;;9.03;54.06;99500.75;4465227;31;32598;-82
2022/03/29 04:56:43;;;;;;;11.40;6.90;;;;;;;9.01;54.16;99502.56;4489206;31;33334;-82
2022/03/29 04:59:11;;;;;;;14.02;9.00;;;;;;;9.17;53.72;99501.00;4491268;31;33973;-82
2022/03/29 05:01:39;;;;;;;15.88;7.90;;;;;;;9.16;53.65;99494.00;4480904;31;33562;-82
2022/03/29 05:04:09;;;;;;;22.27;8.55;;;;;;;9.12;53.90;99495.94;4490284;31;32458;-83
2022/03/29 05:06:36;;;;;;;19.35;8.05;;;;;;;9.24;53.66;99499.81;4476554;31;33853;-82
2022/03/29 05:09:04;;;;;;;21.40;8.00;;;;;;;8.92;54.27;99488.84;4480116;31;33723;-82
2022/03/29 05:11:33;;;;;;;17.33;9.32;;;;;;;9.19;53.64;99485.97;4490300;31;33525;-82
2022/03/29 05:14:00;;;;;;;13.30;9.13;;;;;;;9.33;53.24;99494.16;4477950;31;33480;-83
2022/03/29 05:16:28;;;;;;;18.05;9.02;;;;;;;9.29;53.75;99494.34;4476502;31;32941;-82
2022/03/29 05:18:56;;;;;;;14.20;8.90;;;;;;;9.06;53.92;99495.31;4488604;31;33902;-82
2022/03/29 05:21:23;;;;;;;20.58;9.35;;;;;;;9.15;53.87;99497.56;4488629;31;34773;-82
2022/03/29 05:23:51;;;;;;;24.48;9.65;;;;;;;9.31;53.60;99503.91;4488338;31;34253;-82
2022/03/29 05:26:19;;;;;;;23.65;9.02;;;;;;;9.39;53.65;99499.13;4477171;31;33519;-81
2022/03/29 05:28:47;;;;;;;20.92;9.80;;;;;;;9.34;54.18;99498.47;4488239;31;33466;-80
2022/03/29 05:31:14;;;;;;;23.70;10.48;;;;;;;9.81;53.57;99494.66;4463548;31;34010;-81
2022/03/29 05:33:42;;;;;;;20.33;9.95;;;;;;;9.52;54.65;99498.63;4489371;31;33045;-81
2022/03/29 05:36:12;;;;;;;27.00;9.95;;;;;;;9.31;55.26;99496.00;4479848;31;34873;-81
2022/03/29 05:38:40;;;;;;;21.80;9.98;;;;;;;9.78;54.91;99495.69;4490556;31;33624;-80
2022/03/29 05:41:12;;;;;;;16.05;9.20;;;;;;;9.72;55.14;99498.56;4479873;31;33758;-81
2022/03/29 05:43:40;;;;;;;;;;;;;;;9.70;55.17;99503.06;4490599;31;33087;-80
2022/03/29 05:49:14;;;;;;;33.00;12.23;;;;;;;10.41;54.60;99496.28;4453034;32;33079;-81
2022/03/29 05:51:41;;;;;;;25.60;11.30;;;;;;;10.24;54.43;99493.56;4439535;32;33009;-81
2022/03/29 05:54:09;;;;;;;24.05;11.38;;;;;;;10.51;54.07;99492.25;4445009;31;32644;-81
2022/03/29 05:56:37;;;;;;;25.25;12.65;;;;;;;10.61;53.91;99491.81;4479593;31;33183;-81
2022/03/29 05:59:05;;;;;;;21.42;11.30;;;;;;;11.13;53.49;99483.94;4475411;31;33244;-81
2022/03/29 06:01:32;;;;;;;21.33;11.57;;;;;;;11.14;53.57;99488.28;4491345;31;33946;-81
2022/03/29 06:04:02;;;;;;;18.23;8.85;;;;;;;11.29;52.92;99490.13;4478642;31;33235;-81
2022/03/29 06:06:30;;;;;;;18.83;10.70;;;;;;;11.51;50.93;99485.44;4490481;31;33832;-81
2022/03/29 06:08:58;;;;;;;17.92;10.10;;;;;;;11.67;50.95;99484.63;4488964;31;34300;-81
2022/03/29 06:11:26;;;;;;;14.68;9.80;;;;;;;11.70;50.20;99482.69;4478761;31;34386;-81
2022/03/29 06:13:53;;;;;;;14.18;8.57;;;;;;;11.81;49.25;99482.09;4492033;31;33648;-81
2022/03/29 06:16:21;;;;;;;13.48;9.27;;;;;;;12.31;47.82;99481.16;4489801;31;33263;-81
2022/03/29 06:18:49;;;;;;;15.63;9.05;;;;;;;12.52;47.04;99482.59;4479913;31;33537;-80
2022/03/29 06:21:16;;;;;;;14.73;9.63;;;;;;;12.91;46.96;99473.28;4487322;31;34564;-81
2022/03/29 06:23:43;;;;;;;17.75;9.68;;;;;;;12.98;46.57;99477.31;4490123;31;33367;-81
2022/03/29 06:26:18;;;;;;;17.80;8.48;;;;;;;13.25;45.69;99469.56;4478638;31;33866;-81
2022/03/29 06:28:45;;;;;;;16.83;8.80;;;;;;;13.58;44.43;99469.31;4461376;31;33298;-81
2022/03/29 06:31:13;;;;;;;13.02;8.10;;;;;;;13.74;45.00;99465.69;4476624;31;33433;-81
2022/03/29 06:33:41;;;;;;;14.00;9.23;;;;;;;13.80;44.20;99455.56;4475077;31;33173;-81
2022/03/29 06:36:08;;;;;;;16.20;9.10;;;;;;;13.86;43.72;99454.31;4490182;31;33868;-82
2022/03/29 06:38:38;;;;;;;14.82;8.60;;;;;;;14.06;43.37;99450.41;4491517;31;33543;-81
2022/03/29 06:41:06;;;;;;;15.68;8.90;;;;;;;14.54;42.71;99450.88;4479994;31;32558;-81
2022/03/29 06:43:53;;;;;;;18.77;9.68;;;;;;;14.73;41.69;99445.22;4492355;31;33217;-80
2022/03/29 06:46:22;;;;;;;15.43;9.27;;;;;;;14.86;41.62;99446.09;4480219;31;31716;-81
2022/03/29 06:48:50;;;;;;;16.20;10.55;;;;;;;14.52;42.49;99458.09;4477766;31;32677;-80
2022/03/29 06:51:18;;;;;;;16.92;10.55;;;;;;;14.91;41.62;99453.75;4478439;31;33256;-80
2022/03/29 06:53:46;;;;;;;14.32;10.13;;;;;;;15.26;41.05;99441.59;4477675;31;34127;-81
2022/03/29 06:56:15;;;;;;;17.48;10.75;;;;;;;15.37;40.18;99443.50;4493564;31;34506;-81
2022/03/29 06:58:43;;;;;;;15.80;9.75;;;;;;;15.66;39.17;99440.66;4491761;31;33204;-81
2022/03/29 07:01:10;;;;;;;14.30;9.60;;;;;;;15.06;40.23;99448.28;4490897;31;34490;-80
2022/03/29 07:03:39;;;;;;;16.33;10.35;;;;;;;15.33;40.85;99444.66;4478489;31;33018;-80
2022/03/29 07:06:06;;;;;;;21.42;9.88;;;;;;;15.89;39.92;99437.22;4476763;31;32885;-81
2022/03/29 07:08:34;;;;;;;19.12;10.40;;;;;;;16.13;39.27;99445.25;4492923;31;34465;-81
2022/03/29 07:11:17;;;;;;;17.20;10.32;;;;;;;16.25;38.97;99438.19;4478858;31;33054;-81
2022/03/29 07:13:45;;;;;;;14.35;8.90;;;;;;;16.49;39.28;99444.37;4489579;31;34120;-81
2022/03/29 07:16:14;;;;;;;17.35;10.38;;;;;;;16.57;38.88;99438.50;4475419;31;33797;-81
2022/03/29 07:18:48;;;;;;;16.33;10.05;;;;;;;16.61;38.71;99434.63;4492649;31;33519;-81
2022/03/29 07:21:15;;;;;;;17.90;10.13;;;;;;;16.63;37.82;99438.03;4489819;31;34500;-80
2022/03/29 07:23:43;;;;;;;14.05;8.93;;;;;;;16.92;37.62;99433.22;4477106;31;32973;-80
2022/03/29 07:26:11;;;;;;;19.27;11.20;;;;;;;17.17;37.73;99436.66;4480495;31;33317;-80
2022/03/29 07:28:39;;;;;;;18.40;10.05;;;;;;;17.29;35.69;99430.41;4479035;31;32896;-80
2022/03/29 07:31:06;;;;;;;16.87;11.10;;;;;;;17.23;36.38;99434.38;4491331;31;33620;-81
2022/03/29 07:33:34;;;;;;;15.85;11.02;;;;;;;17.46;35.51;99424.59;4464794;31;33153;-80
2022/03/29 07:36:03;;;;;;;18.50;10.10;;;;;;;17.52;36.53;99429.47;4475902;31;33082;-81
2022/03/29 07:38:31;;;;;;;17.90;10.75;;;;;;;17.60;35.54;99426.19;4477944;31;34300;-81
2022/03/29 07:40:59;;;;;;;21.20;11.27;;;;;;;17.77;35.62;99425.75;4494510;31;32173;-81
2022/03/29 07:43:26;;;;;;;17.37;10.30;;;;;;;17.81;34.99;99427.19;4491569;31;34921;-81
2022/03/29 07:45:55;;;;;;;13.40;9.48;;;;;;;18.24;34.99;99420.22;4468425;31;33084;-81
2022/03/29 07:48:23;;;;;;;16.62;9.98;;;;;;;18.25;33.98;99416.56;4479020;31;32810;-81
2022/03/29 07:51:11;;;;;;;16.90;10.93;;;;;;;18.65;33.61;99416.78;4492405;31;34716;-81
2022/03/29 07:53:40;;;;;;;17.02;10.88;;;;;;;18.71;33.86;99405.63;4478786;31;33972;-81
2022/03/29 07:56:07;;;;;;;20.62;10.82;;;;;;;18.74;33.25;99408.03;4490359;31;34798;-81
2022/03/29 07:58:35;;;;;;;13.35;9.30;;;;;;;19.11;32.75;99407.63;4466434;31;32596;-80
2022/03/29 08:01:03;;;;;;;18.15;10.20;;;;;;;19.07;33.35;99408.84;4478615;31;32417;-81
2022/03/29 08:03:34;;;;;;;19.42;10.85;;;;;;;19.37;32.18;99402.69;4488630;31;33759;-81
2022/03/29 08:06:03;;;;;;;16.80;10.43;;;;;;;19.44;31.79;99410.06;4492561;31;34541;-81
2022/03/29 08:08:32;;;;;;;20.08;11.27;;;;;;;19.43;31.99;99408.38;4480637;31;33362;-81
2022/03/29 08:11:00;;;;;;;17.27;10.60;;;;;;;19.47;31.82;99400.94;4477795;31;33070;-81
2022/03/29 08:13:28;;;;;;;18.30;11.32;;;;;;;19.34;31.77;99397.63;4491524;31;33839;-81
2022/03/29 08:15:57;;;;;;;19.20;10.65;;;;;;;19.60;31.53;99390.84;4479161;31;32970;-81
2022/03/29 08:18:25;;;;;;;21.95;11.60;;;;;;;19.97;31.49;99390.28;4492367;31;33689;-81
2022/03/29 08:20:53;;;;;;;22.10;11.27;;;;;;;19.99;31.19;99388.34;4491560;31;33702;-81
2022/03/29 08:23:20;;;;;;;17.62;11.32;;;;;;;20.27;30.95;99397.44;4491842;31;33337;-81
2022/03/29 08:25:48;;;;;;;17.67;10.23;;;;;;;20.41;29.56;99396.16;4488202;31;33942;-81
2022/03/29 08:28:16;;;;;;;17.58;10.68;;;;;;;20.37;30.31;99386.72;4471458;31;32496;-81
2022/03/29 08:30:44;;;;;;;17.73;11.18;;;;;;;20.50;28.53;99384.63;4476779;31;33084;-81
2022/03/29 08:33:12;;;;;;;22.87;11.68;;;;;;;21.05;29.15;99374.16;4492464;31;32693;-81
2022/03/29 08:35:43;;;;;;;18.12;11.88;;;;;;;21.01;28.02;99377.25;4466825;31;33145;-81
2022/03/29 08:38:10;;;;;;;19.75;11.95;;;;;;;21.25;28.86;99371.41;4480258;31;33638;-78
2022/03/29 08:40:55;;;;;;;21.20;11.45;;;;;;;21.41;27.86;99371.66;4491888;31;33822;-81
2022/03/29 08:43:26;;;;;;;19.77;11.15;;;;;;;21.41;27.29;99366.28;4475798;31;34319;-81
2022/03/29 08:45:55;;;;;;;18.55;11.95;;;;;;;21.44;27.76;99371.38;4490236;31;33525;-81
2022/03/29 08:48:25;;;;;;;26.55;11.70;;;;;;;21.59;27.43;99359.16;4489627;31;33552;-79
2022/03/29 08:50:54;;;;;;;17.05;10.25;;;;;;;21.27;25.67;99364.06;4491728;31;33637;-79
2022/03/29 08:53:39;;;;;;;20.33;11.25;;;;;;;21.79;26.64;99364.44;4470330;31;32330;-79
2022/03/29 08:56:06;;;;;;;16.10;10.23;;;;;;;21.78;26.20;99360.91;4465722;31;33346;-79
2022/03/29 08:58:34;;;;;;;22.60;10.65;;;;;;;22.10;25.39;99354.25;4478502;31;33731;-79
2022/03/29 09:01:02;;;;;;;19.83;11.25;;;;;;;22.23;25.94;99352.06;4489770;31;33222;-81
2022/03/29 09:03:35;;;;;;;19.15;11.25;;;;;;;22.18;25.02;99351.69;4479467;31;33673;-79
2022/03/29 09:06:08;;;;;;;23.10;11.70;;;;;;;22.41;24.72;99346.69;4477544;31;32813;-79
2022/03/29 09:08:46;;;;;;;23.12;11.43;;;;;;;22.32;25.49;99347.63;4491213;31;34627;-79
2022/03/29 09:11:14;;;;;;;15.48;9.73;;;;;;;22.78;23.92;99342.97;4477350;31;33385;-79
2022/03/29 09:13:42;;;;;;;20.73;11.18;;;;;;;22.93;24.08;99338.72;4466045;31;32630;-81
2022/03/29 09:16:30;;;;;;;17.87;9.88;;;;;;;22.65;24.56;99341.53;4476369;31;34278;-81
2022/03/29 09:18:58;;;;;;;19.67;9.85;;;;;;;23.02;23.97;99332.41;4479831;31;33228;-81
2022/03/29 09:21:27;;;;;;;24.70;9.77;;;;;;;22.96;23.48;99333.03;4490674;31;34767;-81
2022/03/29 09:24:05;;;;;;;16.40;9.38;;;;;;;22.93;23.90;99327.97;4476378;31;33420;-81
2022/03/29 09:26:33;;;;;;;17.98;9.90;;;;;;;22.94;24.37;99324.28;4487787;31;34249;-82
2022/03/29 09:29:02;;;;;;;17.12;10.93;;;;;;;23.40;23.79;99319.50;4476820;31;33380;-81
2022/03/29 09:31:29;;;;;;;18.05;10.55;;;;;;;22.59;24.93;99326.00;4489649;31;33681;-81
2022/03/29 09:34:11;;;;;;;16.70;10.73;;;;;;;22.84;25.08;99326.22;4493380;31;33765;-81
2022/03/29 09:36:50;;;;;;;19.95;12.60;;;;;;;22.92;25.76;99320.91;4477696;31;35068;-81
2022/03/29 09:39:32;;;;;;;22.37;12.32;;;;;;;22.47;25.21;99324.56;4489564;31;32963;-81
2022/03/29 09:42:01;;;;;;;15.80;10.10;;;;;;;22.73;26.46;99317.34;4479013;31;32638;-81
2022/03/29 09:44:34;;;;;;;21.90;10.95;;;;;;;22.69;26.05;99320.50;4489376;31;33012;-81
2022/03/29 09:47:04;;;;;;;16.52;10.68;;;;;;;22.91;25.45;99309.28;4475516;31;35039;-81
2022/03/29 09:49:58;;;;;;;15.93;10.35;;;;;;;23.88;23.87;99315.34;4476328;31;34087;-80
2022/03/29 09:52:28;;;;;;;17.50;9.18;;;;;;;23.46;23.95;99308.09;4488560;31;34563;-80
2022/03/29 09:55:07;;;;;;;16.52;9.38;;;;;;;23.63;23.52;99309.84;4477248;31;32466;-81
2022/03/29 09:57:41;;;;;;;13.90;9.07;;;;;;;24.07;22.19;99298.91;4489174;31;32656;-81
2022/03/29 10:00:12;;;;;;;21.33;9.63;;;;;;;24.07;21.13;99301.59;4479392;31;33537;-81
2022/03/29 10:02:44;;;;;;;14.98;8.73;;;;;;;24.37;22.61;99296.59;4492252;31;33430;-81
2022/03/29 10:05:16;;;;;;;14.05;9.18;;;;;;;24.14;22.37;99291.81;4487304;31;33062;-81
2022/03/29 10:07:47;;;;;;;18.55;10.43;;;;;;;24.21;21.99;99291.97;4480473;31;33753;-81
2022/03/29 10:10:15;;;;;;;16.58;8.45;;;;;;;23.83;22.01;99288.03;4474946;31;33981;-81
2022/03/29 10:12:43;;;;;;;13.93;9.25;;;;;;;24.24;22.84;99279.00;4487074;31;33175;-81
2022/03/29 10:15:31;;;;;;;17.73;9.70;;;;;;;24.23;23.62;99274.63;4478459;31;33138;-81
2022/03/29 10:17:58;;;;;;;16.42;9.77;;;;;;;23.85;23.45;99275.25;4465033;31;33023;-81
2022/03/29 10:20:27;;;;;;;16.62;9.57;;;;;;;23.89;22.46;99266.66;4487077;31;33869;-81
2022/03/29 10:22:59;;;;;;;16.50;9.85;;;;;;;24.12;22.39;99256.09;4477668;31;33645;-81
2022/03/29 10:25:31;;;;;;;19.00;10.07;;;;;;;23.86;22.44;99256.19;4490379;31;33163;-81
2022/03/29 10:28:00;;;;;;;17.10;9.77;;;;;;;24.47;20.75;99254.09;4487933;31;34266;-81
2022/03/29 10:30:33;;;;;;;16.42;10.30;;;;;;;24.52;22.19;99247.19;4488284;31;34324;-81
2022/03/29 10:33:17;;;;;;;20.67;9.90;;;;;;;25.14;19.86;99235.78;4476684;31;33616;-81
2022/03/29 10:36:11;;;;;;;16.17;10.50;;;;;;;25.43;18.47;99234.31;4488639;31;32772;-81
2022/03/29 10:38:48;;;;;;;17.98;10.20;;;;;;;24.78;18.71;99230.78;4467112;31;32638;-82
2022/03/29 10:41:33;;;;;;;16.12;10.23;;;;;;;25.31;18.61;99225.75;4489424;31;33981;-81
2022/03/29 10:44:14;;;;;;;23.48;10.10;;;;;;;25.70;19.00;99223.03;4490115;31;34414;-80
2022/03/29 10:46:45;;;;;;;16.60;10.07;;;;;;;24.93;20.29;99216.59;4489899;31;32770;-81
2022/03/29 10:49:17;;;;;;;18.95;10.45;;;;;;;24.96;19.71;99219.75;4489770;31;34194;-81
2022/03/29 10:51:44;;;;;;;14.20;9.75;;;;;;;25.61;19.31;99210.56;4488591;31;33216;-81
2022/03/29 10:54:37;;;;;;;22.25;10.45;;;;;;;25.94;19.64;99204.97;4488007;31;34169;-81
2022/03/29 10:57:07;;;;;;;22.02;11.93;;;;;;;26.14;18.24;99200.75;4477981;31;32745;-81
2022/03/29 10:59:36;;;;;;;19.98;11.48;;;;;;;25.99;17.71;99191.75;4477662;31;33793;-81
2022/03/29 11:02:12;;;;;;;16.45;10.68;;;;;;;26.06;17.68;99192.69;4490188;31;34484;-81
2022/03/29 11:05:03;;;;;;;16.98;10.25;;;;;;;25.95;17.68;99190.44;4490462;31;33548;-81
2022/03/29 11:07:39;;;;;;;16.27;10.50;;;;;;;25.99;17.40;99170.13;4487325;31;33394;-80
2022/03/29 11:10:14;;;;;;;17.05;9.93;;;;;;;26.22;19.24;99168.22;4492175;31;34626;-80
2022/03/29 11:12:51;;;;;;;19.35;10.93;;;;;;;26.46;18.12;99163.66;4488043;31;33965;-79
2022/03/29 11:15:35;;;;;;;16.48;10.55;;;;;;;26.49;18.29;99161.41;4490503;31;34886;-79
2022/03/29 11:18:32;;;;;;;20.17;10.65;;;;;;;26.55;17.58;99147.13;4489672;31;34025;-79
2022/03/29 11:21:04;;;;;;;18.92;10.00;;;;;;;26.58;17.76;99153.19;4478118;31;35813;-79
2022/03/29 11:23:37;;;;;;;19.75;10.85;;;;;;;26.66;18.17;99145.81;4489828;31;33560;-80
2022/03/29 11:26:10;;;;;;;17.17;10.70;;;;;;;26.70;18.59;99135.47;4476650;31;34942;-80
2022/03/29 11:28:50;;;;;;;14.87;10.80;;;;;;;26.74;18.92;99131.34;4495143;31;32952;-78
2022/03/29 11:31:19;;;;;;;20.92;10.60;;;;;;;26.83;18.14;99127.53;4479153;31;33199;-77
2022/03/29 11:33:52;;;;;;;17.15;10.40;;;;;;;26.88;17.54;99116.13;4479157;31;33894;-79
2022/03/29 11:36:20;;;;;;;21.33;12.35;;;;;;;26.85;18.05;99121.91;4491261;31;34532;-79
2022/03/29 11:38:48;;;;;;;16.92;9.93;;;;;;;27.48;15.49;99117.69;4475591;31;32944;-79
2022/03/29 11:41:26;;;;;;;21.73;10.40;;;;;;;26.97;15.51;99110.41;4464180;32;32477;-78
2022/03/29 11:44:00;;;;;;;20.52;11.23;;;;;;;26.68;15.29;99111.28;4492348;31;34781;-78
2022/03/29 11:47:03;;;;;;;20.15;11.55;;;;;;;26.90;15.30;99103.22;4489953;31;33228;-78
2022/03/29 11:49:38;;;;;;;17.48;11.57;;;;;;;26.84;14.92;99104.00;4430973;32;33214;-78